sensor_id;sensor_type;location;lat;lon;timestamp;P1;durP1;ratioP1;P2;durP2;ratioP2
21272;SDS011;36726;52.328;10.552;2023-03-01T00:01:10;9.68;;;4.97;;
21272;SDS011;36726;52.328;10.552;2023-03-01T00:03:41;10.85;;;4.40;;
21272;SDS011;36726;52.328;10.552;2023-03-01T00:06:08;6.65;;;4.45;;
21272;SDS011;36726;52.328;10.552;2023-03-01T00:08:34;9.75;;;5.10;;
21272;SDS011;36726;52.328;10.552;2023-03-01T00:13:33;7.60;;;4.47;;
21272;SDS011;36726;52.328;10.552;2023-03-01T00:16:04;7.25;;;4.38;;
21272;SDS011;36726;52.328;10.552;2023-03-01T00:18:31;10.10;;;4.47;;
21272;SDS011;36726;52.328;10.552;2023-03-01T00:20:58;9.15;;;5.10;;
21272;SDS011;36726;52.328;10.552;2023-03-01T00:23:25;8.55;;;4.72;;
21272;SDS011;36726;52.328;10.552;2023-03-01T00:25:52;11.32;;;5.15;;
21272;SDS011;36726;52.328;10.552;2023-03-01T00:28:19;9.23;;;4.57;;
21272;SDS011;36726;52.328;10.552;2023-03-01T00:30:46;10.13;;;5.00;;
21272;SDS011;36726;52.328;10.552;2023-03-01T00:33:13;12.93;;;5.60;;
21272;SDS011;36726;52.328;10.552;2023-03-01T00:35:40;9.98;;;5.15;;
21272;SDS011;36726;52.328;10.552;2023-03-01T00:38:06;13.40;;;5.32;;
21272;SDS011;36726;52.328;10.552;2023-03-01T00:40:33;10.18;;;4.47;;
21272;SDS011;36726;52.328;10.552;2023-03-01T00:43:02;8.32;;;4.78;;
21272;SDS011;36726;52.328;10.552;2023-03-01T00:45:29;7.45;;;4.60;;
21272;SDS011;36726;52.328;10.552;2023-03-01T00:47:57;8.23;;;4.35;;
21272;SDS011;36726;52.328;10.552;2023-03-01T00:50:24;9.57;;;4.55;;
21272;SDS011;36726;52.328;10.552;2023-03-01T00:52:54;11.15;;;4.70;;
21272;SDS011;36726;52.328;10.552;2023-03-01T00:55:22;8.77;;;4.28;;
21272;SDS011;36726;52.328;10.552;2023-03-01T00:57:49;13.82;;;4.82;;
21272;SDS011;36726;52.328;10.552;2023-03-01T01:00:18;9.27;;;4.57;;
21272;SDS011;36726;52.328;10.552;2023-03-01T01:02:46;8.77;;;3.90;;
21272;SDS011;36726;52.328;10.552;2023-03-01T01:05:13;7.95;;;4.05;;
21272;SDS011;36726;52.328;10.552;2023-03-01T01:07:40;10.95;;;5.25;;
21272;SDS011;36726;52.328;10.552;2023-03-01T01:10:06;9.82;;;4.80;;
21272;SDS011;36726;52.328;10.552;2023-03-01T01:12:33;11.27;;;4.25;;
21272;SDS011;36726;52.328;10.552;2023-03-01T01:15:00;8.55;;;4.53;;
21272;SDS011;36726;52.328;10.552;2023-03-01T01:17:27;10.00;;;4.22;;
21272;SDS011;36726;52.328;10.552;2023-03-01T01:19:53;8.07;;;4.15;;
21272;SDS011;36726;52.328;10.552;2023-03-01T01:22:19;9.73;;;4.53;;
21272;SDS011;36726;52.328;10.552;2023-03-01T01:24:46;7.90;;;4.07;;
21272;SDS011;36726;52.328;10.552;2023-03-01T01:27:13;7.50;;;3.72;;
21272;SDS011;36726;52.328;10.552;2023-03-01T01:29:39;8.82;;;3.97;;
21272;SDS011;36726;52.328;10.552;2023-03-01T01:32:08;8.48;;;4.22;;
21272;SDS011;36726;52.328;10.552;2023-03-01T01:34:34;7.07;;;3.90;;
21272;SDS011;36726;52.328;10.552;2023-03-01T01:37:01;6.88;;;3.83;;
21272;SDS011;36726;52.328;10.552;2023-03-01T01:39:29;9.10;;;3.90;;
21272;SDS011;36726;52.328;10.552;2023-03-01T01:41:55;8.43;;;3.90;;
21272;SDS011;36726;52.328;10.552;2023-03-01T01:44:25;7.55;;;3.85;;
21272;SDS011;36726;52.328;10.552;2023-03-01T01:46:54;5.78;;;3.58;;
21272;SDS011;36726;52.328;10.552;2023-03-01T01:49:28;7.93;;;3.70;;
21272;SDS011;36726;52.328;10.552;2023-03-01T01:52:19;8.13;;;4.20;;
21272;SDS011;36726;52.328;10.552;2023-03-01T01:54:57;7.93;;;4.00;;
21272;SDS011;36726;52.328;10.552;2023-03-01T01:57:32;8.80;;;3.85;;
21272;SDS011;36726;52.328;10.552;2023-03-01T02:00:07;6.68;;;4.13;;
21272;SDS011;36726;52.328;10.552;2023-03-01T02:02:40;9.15;;;4.25;;
21272;SDS011;36726;52.328;10.552;2023-03-01T02:05:11;11.30;;;4.78;;
21272;SDS011;36726;52.328;10.552;2023-03-01T02:07:46;7.70;;;4.07;;
21272;SDS011;36726;52.328;10.552;2023-03-01T02:10:18;7.60;;;4.43;;
21272;SDS011;36726;52.328;10.552;2023-03-01T02:12:46;7.63;;;4.20;;
21272;SDS011;36726;52.328;10.552;2023-03-01T02:15:12;7.28;;;3.92;;
21272;SDS011;36726;52.328;10.552;2023-03-01T02:17:39;8.20;;;4.13;;
21272;SDS011;36726;52.328;10.552;2023-03-01T02:22:57;8.63;;;3.78;;
21272;SDS011;36726;52.328;10.552;2023-03-01T02:25:44;8.75;;;4.22;;
21272;SDS011;36726;52.328;10.552;2023-03-01T02:31:01;9.05;;;4.20;;
21272;SDS011;36726;52.328;10.552;2023-03-01T02:33:49;11.20;;;4.07;;
21272;SDS011;36726;52.328;10.552;2023-03-01T02:36:19;11.43;;;4.47;;
21272;SDS011;36726;52.328;10.552;2023-03-01T02:38:48;6.57;;;3.90;;
21272;SDS011;36726;52.328;10.552;2023-03-01T02:41:18;6.70;;;3.97;;
21272;SDS011;36726;52.328;10.552;2023-03-01T02:43:47;7.30;;;4.05;;
21272;SDS011;36726;52.328;10.552;2023-03-01T02:46:18;7.57;;;3.80;;
21272;SDS011;36726;52.328;10.552;2023-03-01T02:48:49;6.03;;;3.67;;
21272;SDS011;36726;52.328;10.552;2023-03-01T02:56:25;7.03;;;3.72;;
21272;SDS011;36726;52.328;10.552;2023-03-01T02:58:52;8.00;;;4.47;;
21272;SDS011;36726;52.328;10.552;2023-03-01T03:01:19;6.47;;;3.60;;
21272;SDS011;36726;52.328;10.552;2023-03-01T03:03:46;5.80;;;3.90;;
21272;SDS011;36726;52.328;10.552;2023-03-01T03:06:13;9.18;;;4.20;;
21272;SDS011;36726;52.328;10.552;2023-03-01T03:08:40;11.40;;;4.22;;
21272;SDS011;36726;52.328;10.552;2023-03-01T03:11:06;7.38;;;3.92;;
21272;SDS011;36726;52.328;10.552;2023-03-01T03:13:33;7.93;;;4.07;;
21272;SDS011;36726;52.328;10.552;2023-03-01T03:16:00;13.90;;;4.30;;
21272;SDS011;36726;52.328;10.552;2023-03-01T03:18:29;6.45;;;3.67;;
21272;SDS011;36726;52.328;10.552;2023-03-01T03:20:56;9.07;;;4.65;;
21272;SDS011;36726;52.328;10.552;2023-03-01T03:23:22;8.23;;;4.22;;
21272;SDS011;36726;52.328;10.552;2023-03-01T03:25:49;8.52;;;4.50;;
21272;SDS011;36726;52.328;10.552;2023-03-01T03:28:16;8.43;;;4.18;;
21272;SDS011;36726;52.328;10.552;2023-03-01T03:30:44;7.30;;;4.63;;
21272;SDS011;36726;52.328;10.552;2023-03-01T03:33:11;8.98;;;4.78;;
21272;SDS011;36726;52.328;10.552;2023-03-01T03:35:40;8.40;;;4.78;;
21272;SDS011;36726;52.328;10.552;2023-03-01T03:38:09;10.23;;;4.63;;
21272;SDS011;36726;52.328;10.552;2023-03-01T03:40:51;9.07;;;4.70;;
21272;SDS011;36726;52.328;10.552;2023-03-01T03:43:28;11.63;;;5.40;;
21272;SDS011;36726;52.328;10.552;2023-03-01T03:45:56;13.35;;;5.50;;
21272;SDS011;36726;52.328;10.552;2023-03-01T03:48:25;11.82;;;5.47;;
21272;SDS011;36726;52.328;10.552;2023-03-01T03:50:53;10.07;;;4.85;;
21272;SDS011;36726;52.328;10.552;2023-03-01T03:53:21;11.13;;;5.25;;
21272;SDS011;36726;52.328;10.552;2023-03-01T03:55:49;9.68;;;4.70;;
21272;SDS011;36726;52.328;10.552;2023-03-01T03:58:16;9.40;;;4.90;;
21272;SDS011;36726;52.328;10.552;2023-03-01T04:00:46;11.45;;;4.80;;
21272;SDS011;36726;52.328;10.552;2023-03-01T04:03:14;8.73;;;4.80;;
21272;SDS011;36726;52.328;10.552;2023-03-01T04:05:42;7.55;;;4.10;;
21272;SDS011;36726;52.328;10.552;2023-03-01T04:08:08;12.88;;;5.32;;
21272;SDS011;36726;52.328;10.552;2023-03-01T04:10:36;9.63;;;4.72;;
21272;SDS011;36726;52.328;10.552;2023-03-01T04:13:06;11.23;;;4.78;;
21272;SDS011;36726;52.328;10.552;2023-03-01T04:15:33;9.20;;;4.45;;
21272;SDS011;36726;52.328;10.552;2023-03-01T04:18:01;8.88;;;4.82;;
21272;SDS011;36726;52.328;10.552;2023-03-01T04:20:29;8.65;;;4.28;;
21272;SDS011;36726;52.328;10.552;2023-03-01T04:23:01;7.30;;;4.60;;
21272;SDS011;36726;52.328;10.552;2023-03-01T04:25:37;9.60;;;4.63;;
21272;SDS011;36726;52.328;10.552;2023-03-01T04:28:05;10.48;;;4.35;;
21272;SDS011;36726;52.328;10.552;2023-03-01T04:30:32;9.43;;;3.97;;
21272;SDS011;36726;52.328;10.552;2023-03-01T04:33:06;7.97;;;3.92;;
21272;SDS011;36726;52.328;10.552;2023-03-01T04:35:33;9.25;;;4.00;;
21272;SDS011;36726;52.328;10.552;2023-03-01T04:38:01;7.43;;;3.65;;
21272;SDS011;36726;52.328;10.552;2023-03-01T04:40:27;9.07;;;4.03;;
21272;SDS011;36726;52.328;10.552;2023-03-01T04:42:54;6.40;;;3.78;;
21272;SDS011;36726;52.328;10.552;2023-03-01T04:45:21;8.15;;;4.03;;
21272;SDS011;36726;52.328;10.552;2023-03-01T04:47:47;6.15;;;3.70;;
21272;SDS011;36726;52.328;10.552;2023-03-01T04:50:15;6.88;;;3.70;;
21272;SDS011;36726;52.328;10.552;2023-03-01T04:52:46;7.15;;;3.90;;
21272;SDS011;36726;52.328;10.552;2023-03-01T04:55:13;7.47;;;3.60;;
21272;SDS011;36726;52.328;10.552;2023-03-01T04:57:40;6.70;;;3.83;;
21272;SDS011;36726;52.328;10.552;2023-03-01T05:00:08;5.90;;;3.35;;
21272;SDS011;36726;52.328;10.552;2023-03-01T05:02:53;7.40;;;3.40;;
21272;SDS011;36726;52.328;10.552;2023-03-01T05:05:32;7.30;;;3.80;;
21272;SDS011;36726;52.328;10.552;2023-03-01T05:08:03;8.95;;;3.47;;
21272;SDS011;36726;52.328;10.552;2023-03-01T05:10:32;8.50;;;3.72;;
21272;SDS011;36726;52.328;10.552;2023-03-01T05:13:01;8.18;;;4.00;;
21272;SDS011;36726;52.328;10.552;2023-03-01T05:15:31;8.32;;;4.10;;
21272;SDS011;36726;52.328;10.552;2023-03-01T05:17:58;8.30;;;3.80;;
21272;SDS011;36726;52.328;10.552;2023-03-01T05:20:26;7.13;;;3.75;;
21272;SDS011;36726;52.328;10.552;2023-03-01T05:22:55;7.68;;;3.95;;
21272;SDS011;36726;52.328;10.552;2023-03-01T05:25:24;7.70;;;4.32;;
21272;SDS011;36726;52.328;10.552;2023-03-01T05:27:51;9.77;;;4.18;;
21272;SDS011;36726;52.328;10.552;2023-03-01T05:30:18;7.30;;;3.65;;
21272;SDS011;36726;52.328;10.552;2023-03-01T05:32:46;6.68;;;3.97;;
21272;SDS011;36726;52.328;10.552;2023-03-01T05:35:16;11.00;;;4.13;;
21272;SDS011;36726;52.328;10.552;2023-03-01T05:37:44;6.57;;;4.13;;
21272;SDS011;36726;52.328;10.552;2023-03-01T05:40:13;9.82;;;4.00;;
21272;SDS011;36726;52.328;10.552;2023-03-01T05:42:49;6.40;;;3.63;;
21272;SDS011;36726;52.328;10.552;2023-03-01T05:45:18;8.50;;;3.55;;
21272;SDS011;36726;52.328;10.552;2023-03-01T05:47:46;5.72;;;3.50;;
21272;SDS011;36726;52.328;10.552;2023-03-01T05:50:15;8.43;;;4.38;;
21272;SDS011;36726;52.328;10.552;2023-03-01T05:52:46;6.70;;;3.67;;
21272;SDS011;36726;52.328;10.552;2023-03-01T05:55:18;8.07;;;4.38;;
21272;SDS011;36726;52.328;10.552;2023-03-01T05:57:46;9.05;;;4.05;;
21272;SDS011;36726;52.328;10.552;2023-03-01T06:00:13;7.68;;;4.00;;
21272;SDS011;36726;52.328;10.552;2023-03-01T06:02:41;6.85;;;3.58;;
21272;SDS011;36726;52.328;10.552;2023-03-01T06:05:08;9.25;;;4.22;;
21272;SDS011;36726;52.328;10.552;2023-03-01T06:07:37;6.60;;;3.97;;
21272;SDS011;36726;52.328;10.552;2023-03-01T06:10:04;8.82;;;4.25;;
21272;SDS011;36726;52.328;10.552;2023-03-01T06:12:35;7.95;;;4.30;;
21272;SDS011;36726;52.328;10.552;2023-03-01T06:15:03;8.07;;;3.90;;
21272;SDS011;36726;52.328;10.552;2023-03-01T06:17:32;6.20;;;4.07;;
21272;SDS011;36726;52.328;10.552;2023-03-01T06:20:04;7.82;;;4.07;;
21272;SDS011;36726;52.328;10.552;2023-03-01T06:22:33;11.63;;;4.32;;
21272;SDS011;36726;52.328;10.552;2023-03-01T06:24:59;9.77;;;4.05;;
21272;SDS011;36726;52.328;10.552;2023-03-01T06:27:26;9.18;;;3.85;;
21272;SDS011;36726;52.328;10.552;2023-03-01T06:29:53;7.57;;;4.03;;
21272;SDS011;36726;52.328;10.552;2023-03-01T06:32:19;11.55;;;4.20;;
21272;SDS011;36726;52.328;10.552;2023-03-01T06:34:46;7.53;;;4.10;;
21272;SDS011;36726;52.328;10.552;2023-03-01T06:37:13;8.05;;;4.13;;
21272;SDS011;36726;52.328;10.552;2023-03-01T06:39:39;11.55;;;4.20;;
21272;SDS011;36726;52.328;10.552;2023-03-01T06:42:07;8.32;;;4.57;;
21272;SDS011;36726;52.328;10.552;2023-03-01T06:44:36;11.27;;;4.43;;
21272;SDS011;36726;52.328;10.552;2023-03-01T06:47:03;9.48;;;4.07;;
21272;SDS011;36726;52.328;10.552;2023-03-01T06:49:30;8.32;;;4.53;;
21272;SDS011;36726;52.328;10.552;2023-03-01T06:51:57;12.20;;;4.85;;
21272;SDS011;36726;52.328;10.552;2023-03-01T06:54:23;7.75;;;4.40;;
21272;SDS011;36726;52.328;10.552;2023-03-01T06:56:50;7.70;;;4.50;;
21272;SDS011;36726;52.328;10.552;2023-03-01T06:59:16;7.20;;;3.85;;
21272;SDS011;36726;52.328;10.552;2023-03-01T07:01:45;11.02;;;4.47;;
21272;SDS011;36726;52.328;10.552;2023-03-01T07:04:12;11.43;;;4.95;;
21272;SDS011;36726;52.328;10.552;2023-03-01T07:06:39;7.50;;;4.07;;
21272;SDS011;36726;52.328;10.552;2023-03-01T07:09:05;6.10;;;4.15;;
21272;SDS011;36726;52.328;10.552;2023-03-01T07:11:32;14.70;;;5.03;;
21272;SDS011;36726;52.328;10.552;2023-03-01T07:13:59;8.77;;;4.20;;
21272;SDS011;36726;52.328;10.552;2023-03-01T07:16:27;9.25;;;4.45;;
21272;SDS011;36726;52.328;10.552;2023-03-01T07:18:54;9.88;;;4.53;;
21272;SDS011;36726;52.328;10.552;2023-03-01T07:21:21;12.13;;;4.53;;
21272;SDS011;36726;52.328;10.552;2023-03-01T07:23:47;7.72;;;4.50;;
21272;SDS011;36726;52.328;10.552;2023-03-01T07:26:15;10.38;;;5.57;;
21272;SDS011;36726;52.328;10.552;2023-03-01T07:28:41;19.10;;;8.85;;
21272;SDS011;36726;52.328;10.552;2023-03-01T07:31:08;13.20;;;6.53;;
21272;SDS011;36726;52.328;10.552;2023-03-01T07:33:34;11.85;;;6.45;;
21272;SDS011;36726;52.328;10.552;2023-03-01T07:36:02;12.32;;;6.55;;
21272;SDS011;36726;52.328;10.552;2023-03-01T07:38:30;10.65;;;6.25;;
21272;SDS011;36726;52.328;10.552;2023-03-01T07:41:00;14.10;;;6.32;;
21272;SDS011;36726;52.328;10.552;2023-03-01T07:43:28;15.57;;;7.05;;
21272;SDS011;36726;52.328;10.552;2023-03-01T07:45:59;14.40;;;6.97;;
21272;SDS011;36726;52.328;10.552;2023-03-01T07:48:27;15.85;;;7.28;;
21272;SDS011;36726;52.328;10.552;2023-03-01T07:50:57;18.25;;;7.28;;
21272;SDS011;36726;52.328;10.552;2023-03-01T07:53:25;12.48;;;6.95;;
21272;SDS011;36726;52.328;10.552;2023-03-01T07:56:05;13.68;;;7.30;;
21272;SDS011;36726;52.328;10.552;2023-03-01T07:58:34;12.13;;;6.10;;
21272;SDS011;36726;52.328;10.552;2023-03-01T08:01:02;11.15;;;5.88;;
21272;SDS011;36726;52.328;10.552;2023-03-01T08:03:30;13.60;;;5.40;;
21272;SDS011;36726;52.328;10.552;2023-03-01T08:05:59;13.55;;;6.30;;
21272;SDS011;36726;52.328;10.552;2023-03-01T08:08:26;10.68;;;5.82;;
21272;SDS011;36726;52.328;10.552;2023-03-01T08:10:56;10.70;;;5.30;;
21272;SDS011;36726;52.328;10.552;2023-03-01T08:13:23;11.43;;;5.15;;
21272;SDS011;36726;52.328;10.552;2023-03-01T08:15:50;9.68;;;5.03;;
21272;SDS011;36726;52.328;10.552;2023-03-01T08:18:17;8.13;;;4.93;;
21272;SDS011;36726;52.328;10.552;2023-03-01T08:20:45;10.40;;;5.68;;
21272;SDS011;36726;52.328;10.552;2023-03-01T08:23:12;11.77;;;5.53;;
21272;SDS011;36726;52.328;10.552;2023-03-01T08:25:39;8.23;;;4.65;;
21272;SDS011;36726;52.328;10.552;2023-03-01T08:28:05;10.93;;;5.03;;
21272;SDS011;36726;52.328;10.552;2023-03-01T08:30:32;12.57;;;5.50;;
21272;SDS011;36726;52.328;10.552;2023-03-01T08:32:58;12.23;;;5.40;;
21272;SDS011;36726;52.328;10.552;2023-03-01T08:35:25;15.25;;;5.97;;
21272;SDS011;36726;52.328;10.552;2023-03-01T08:37:51;12.05;;;5.70;;
21272;SDS011;36726;52.328;10.552;2023-03-01T08:40:18;9.80;;;4.35;;
21272;SDS011;36726;52.328;10.552;2023-03-01T08:42:44;8.10;;;4.55;;
21272;SDS011;36726;52.328;10.552;2023-03-01T08:45:12;10.50;;;4.40;;
21272;SDS011;36726;52.328;10.552;2023-03-01T08:47:40;8.85;;;4.68;;
21272;SDS011;36726;52.328;10.552;2023-03-01T08:50:06;8.20;;;4.15;;
21272;SDS011;36726;52.328;10.552;2023-03-01T08:52:33;6.70;;;3.70;;
21272;SDS011;36726;52.328;10.552;2023-03-01T08:55:00;9.20;;;3.97;;
21272;SDS011;36726;52.328;10.552;2023-03-01T08:57:27;6.35;;;3.67;;
21272;SDS011;36726;52.328;10.552;2023-03-01T08:59:54;6.93;;;3.72;;
21272;SDS011;36726;52.328;10.552;2023-03-01T09:02:22;8.90;;;3.60;;
21272;SDS011;36726;52.328;10.552;2023-03-01T09:04:49;4.72;;;3.30;;
21272;SDS011;36726;52.328;10.552;2023-03-01T09:07:15;6.03;;;3.78;;
21272;SDS011;36726;52.328;10.552;2023-03-01T09:09:42;5.88;;;3.30;;
21272;SDS011;36726;52.328;10.552;2023-03-01T09:12:08;5.13;;;3.25;;
21272;SDS011;36726;52.328;10.552;2023-03-01T09:14:35;5.80;;;3.05;;
21272;SDS011;36726;52.328;10.552;2023-03-01T09:17:04;7.88;;;3.83;;
21272;SDS011;36726;52.328;10.552;2023-03-01T09:19:31;6.28;;;3.50;;
21272;SDS011;36726;52.328;10.552;2023-03-01T09:21:57;7.82;;;3.25;;
21272;SDS011;36726;52.328;10.552;2023-03-01T09:24:24;6.72;;;3.45;;
21272;SDS011;36726;52.328;10.552;2023-03-01T09:26:53;5.80;;;3.03;;
21272;SDS011;36726;52.328;10.552;2023-03-01T09:29:22;9.05;;;4.78;;
21272;SDS011;36726;52.328;10.552;2023-03-01T09:31:49;6.72;;;3.25;;
21272;SDS011;36726;52.328;10.552;2023-03-01T09:34:15;5.82;;;3.25;;
21272;SDS011;36726;52.328;10.552;2023-03-01T09:36:45;5.13;;;3.20;;
21272;SDS011;36726;52.328;10.552;2023-03-01T09:39:11;5.05;;;3.03;;
21272;SDS011;36726;52.328;10.552;2023-03-01T09:47:24;4.57;;;3.13;;
21272;SDS011;36726;52.328;10.552;2023-03-01T09:49:57;5.60;;;3.28;;
21272;SDS011;36726;52.328;10.552;2023-03-01T09:52:30;5.60;;;3.17;;
21272;SDS011;36726;52.328;10.552;2023-03-01T09:55:08;7.68;;;3.50;;
21272;SDS011;36726;52.328;10.552;2023-03-01T09:57:47;5.35;;;3.30;;
21272;SDS011;36726;52.328;10.552;2023-03-01T10:00:35;6.05;;;3.05;;
21272;SDS011;36726;52.328;10.552;2023-03-01T10:11:03;4.40;;;2.75;;
21272;SDS011;36726;52.328;10.552;2023-03-01T10:13:37;6.03;;;2.80;;
21272;SDS011;36726;52.328;10.552;2023-03-01T10:16:28;9.52;;;3.67;;
21272;SDS011;36726;52.328;10.552;2023-03-01T10:19:05;6.70;;;3.20;;
21272;SDS011;36726;52.328;10.552;2023-03-01T10:21:44;4.78;;;2.92;;
21272;SDS011;36726;52.328;10.552;2023-03-01T10:24:16;4.35;;;2.60;;
21272;SDS011;36726;52.328;10.552;2023-03-01T10:26:52;6.25;;;2.83;;
21272;SDS011;36726;52.328;10.552;2023-03-01T10:29:23;5.32;;;2.40;;
21272;SDS011;36726;52.328;10.552;2023-03-01T10:32:05;4.20;;;2.80;;
21272;SDS011;36726;52.328;10.552;2023-03-01T10:34:34;5.90;;;2.63;;
21272;SDS011;36726;52.328;10.552;2023-03-01T10:37:08;4.85;;;2.55;;
21272;SDS011;36726;52.328;10.552;2023-03-01T10:39:36;5.15;;;2.17;;
21272;SDS011;36726;52.328;10.552;2023-03-01T10:42:04;5.90;;;2.75;;
21272;SDS011;36726;52.328;10.552;2023-03-01T10:44:41;5.22;;;2.70;;
21272;SDS011;36726;52.328;10.552;2023-03-01T10:47:16;7.97;;;2.70;;
21272;SDS011;36726;52.328;10.552;2023-03-01T10:50:05;4.68;;;2.30;;
21272;SDS011;36726;52.328;10.552;2023-03-01T10:55:01;7.28;;;2.60;;
21272;SDS011;36726;52.328;10.552;2023-03-01T10:57:50;4.05;;;2.30;;
21272;SDS011;36726;52.328;10.552;2023-03-01T11:00:33;6.72;;;2.70;;
21272;SDS011;36726;52.328;10.552;2023-03-01T11:03:14;5.72;;;3.00;;
21272;SDS011;36726;52.328;10.552;2023-03-01T11:05:51;4.20;;;2.30;;
21272;SDS011;36726;52.328;10.552;2023-03-01T11:08:29;6.32;;;2.53;;
21272;SDS011;36726;52.328;10.552;2023-03-01T11:11:04;6.60;;;3.17;;
21272;SDS011;36726;52.328;10.552;2023-03-01T11:13:54;4.20;;;2.42;;
21272;SDS011;36726;52.328;10.552;2023-03-01T11:16:27;4.78;;;2.75;;
21272;SDS011;36726;52.328;10.552;2023-03-01T11:18:58;4.18;;;2.50;;
21272;SDS011;36726;52.328;10.552;2023-03-01T11:21:26;6.50;;;2.95;;
21272;SDS011;36726;52.328;10.552;2023-03-01T11:23:56;4.50;;;2.38;;
21272;SDS011;36726;52.328;10.552;2023-03-01T11:26:27;5.60;;;2.85;;
21272;SDS011;36726;52.328;10.552;2023-03-01T11:28:56;5.05;;;2.63;;
21272;SDS011;36726;52.328;10.552;2023-03-01T11:31:28;4.28;;;2.47;;
21272;SDS011;36726;52.328;10.552;2023-03-01T11:34:11;4.63;;;2.95;;
21272;SDS011;36726;52.328;10.552;2023-03-01T11:36:45;4.72;;;2.65;;
21272;SDS011;36726;52.328;10.552;2023-03-01T11:39:54;4.47;;;2.65;;
21272;SDS011;36726;52.328;10.552;2023-03-01T11:45:02;5.07;;;2.42;;
21272;SDS011;36726;52.328;10.552;2023-03-01T11:53:02;4.40;;;2.40;;
21272;SDS011;36726;52.328;10.552;2023-03-01T11:58:54;4.47;;;2.70;;
21272;SDS011;36726;52.328;10.552;2023-03-01T12:10:01;4.50;;;2.50;;
21272;SDS011;36726;52.328;10.552;2023-03-01T12:20:41;3.38;;;2.33;;
21272;SDS011;36726;52.328;10.552;2023-03-01T12:26:20;4.78;;;2.60;;
21272;SDS011;36726;52.328;10.552;2023-03-01T12:29:03;5.15;;;2.20;;
21272;SDS011;36726;52.328;10.552;2023-03-01T12:34:41;4.63;;;2.50;;
21272;SDS011;36726;52.328;10.552;2023-03-01T12:37:35;4.50;;;2.78;;
21272;SDS011;36726;52.328;10.552;2023-03-01T12:45:51;3.72;;;2.05;;
21272;SDS011;36726;52.328;10.552;2023-03-01T12:48:24;3.95;;;2.35;;
21272;SDS011;36726;52.328;10.552;2023-03-01T12:51:17;4.18;;;2.40;;
21272;SDS011;36726;52.328;10.552;2023-03-01T12:53:49;5.30;;;2.58;;
21272;SDS011;36726;52.328;10.552;2023-03-01T12:56:22;4.40;;;2.20;;
21272;SDS011;36726;52.328;10.552;2023-03-01T12:58:51;5.35;;;2.63;;
21272;SDS011;36726;52.328;10.552;2023-03-01T13:01:38;5.82;;;2.80;;
21272;SDS011;36726;52.328;10.552;2023-03-01T13:04:16;5.65;;;2.92;;
21272;SDS011;36726;52.328;10.552;2023-03-01T13:09:49;8.10;;;2.30;;
21272;SDS011;36726;52.328;10.552;2023-03-01T13:12:50;4.28;;;2.70;;
21272;SDS011;36726;52.328;10.552;2023-03-01T13:17:59;6.38;;;2.45;;
21272;SDS011;36726;52.328;10.552;2023-03-01T13:20:31;5.85;;;2.60;;
21272;SDS011;36726;52.328;10.552;2023-03-01T13:23:02;3.47;;;2.05;;
21272;SDS011;36726;52.328;10.552;2023-03-01T13:25:33;3.75;;;2.17;;
21272;SDS011;36726;52.328;10.552;2023-03-01T13:34:45;2.97;;;1.90;;
21272;SDS011;36726;52.328;10.552;2023-03-01T13:37:08;4.30;;;2.30;;
21272;SDS011;36726;52.328;10.552;2023-03-01T13:39:40;3.83;;;2.20;;
21272;SDS011;36726;52.328;10.552;2023-03-01T13:42:28;5.00;;;2.47;;
21272;SDS011;36726;52.328;10.552;2023-03-01T13:44:58;6.68;;;2.38;;
21272;SDS011;36726;52.328;10.552;2023-03-01T13:47:26;3.63;;;2.00;;
21272;SDS011;36726;52.328;10.552;2023-03-01T13:55:17;4.07;;;2.22;;
21272;SDS011;36726;52.328;10.552;2023-03-01T13:57:48;4.05;;;2.22;;
21272;SDS011;36726;52.328;10.552;2023-03-01T14:03:09;3.83;;;2.05;;
21272;SDS011;36726;52.328;10.552;2023-03-01T14:05:36;2.40;;;1.58;;
21272;SDS011;36726;52.328;10.552;2023-03-01T14:08:04;3.70;;;1.83;;
21272;SDS011;36726;52.328;10.552;2023-03-01T14:10:35;4.03;;;2.10;;
21272;SDS011;36726;52.328;10.552;2023-03-01T14:13:17;3.08;;;1.77;;
21272;SDS011;36726;52.328;10.552;2023-03-01T14:19:19;5.25;;;1.70;;
21272;SDS011;36726;52.328;10.552;2023-03-01T14:21:59;6.57;;;2.10;;
21272;SDS011;36726;52.328;10.552;2023-03-01T14:24:39;6.82;;;2.05;;
21272;SDS011;36726;52.328;10.552;2023-03-01T14:27:13;2.65;;;1.88;;
21272;SDS011;36726;52.328;10.552;2023-03-01T14:29:40;4.35;;;2.15;;
21272;SDS011;36726;52.328;10.552;2023-03-01T14:32:20;3.55;;;1.70;;
21272;SDS011;36726;52.328;10.552;2023-03-01T14:34:50;5.25;;;1.98;;
21272;SDS011;36726;52.328;10.552;2023-03-01T14:37:22;4.65;;;2.17;;
21272;SDS011;36726;52.328;10.552;2023-03-01T14:39:51;3.53;;;1.80;;
21272;SDS011;36726;52.328;10.552;2023-03-01T14:42:19;4.78;;;2.42;;
21272;SDS011;36726;52.328;10.552;2023-03-01T14:44:50;4.97;;;2.13;;
21272;SDS011;36726;52.328;10.552;2023-03-01T14:47:28;2.85;;;2.03;;
21272;SDS011;36726;52.328;10.552;2023-03-01T14:50:07;4.47;;;1.95;;
21272;SDS011;36726;52.328;10.552;2023-03-01T14:52:41;4.40;;;1.92;;
21272;SDS011;36726;52.328;10.552;2023-03-01T14:55:18;4.55;;;2.10;;
21272;SDS011;36726;52.328;10.552;2023-03-01T14:57:47;4.55;;;2.13;;
21272;SDS011;36726;52.328;10.552;2023-03-01T15:00:16;4.05;;;2.30;;
21272;SDS011;36726;52.328;10.552;2023-03-01T15:02:50;4.72;;;2.25;;
21272;SDS011;36726;52.328;10.552;2023-03-01T15:05:22;4.03;;;1.85;;
21272;SDS011;36726;52.328;10.552;2023-03-01T15:07:53;3.67;;;2.20;;
21272;SDS011;36726;52.328;10.552;2023-03-01T15:10:22;5.45;;;2.40;;
21272;SDS011;36726;52.328;10.552;2023-03-01T15:12:51;3.13;;;2.15;;
21272;SDS011;36726;52.328;10.552;2023-03-01T15:15:20;3.13;;;1.80;;
21272;SDS011;36726;52.328;10.552;2023-03-01T15:17:55;3.50;;;1.73;;
21272;SDS011;36726;52.328;10.552;2023-03-01T15:20:25;3.65;;;2.03;;
21272;SDS011;36726;52.328;10.552;2023-03-01T15:22:55;3.58;;;2.05;;
21272;SDS011;36726;52.328;10.552;2023-03-01T15:25:27;4.88;;;2.30;;
21272;SDS011;36726;52.328;10.552;2023-03-01T15:27:56;4.03;;;2.33;;
21272;SDS011;36726;52.328;10.552;2023-03-01T15:30:26;3.50;;;1.83;;
21272;SDS011;36726;52.328;10.552;2023-03-01T15:35:55;4.55;;;1.90;;
21272;SDS011;36726;52.328;10.552;2023-03-01T15:38:31;3.30;;;2.03;;
21272;SDS011;36726;52.328;10.552;2023-03-01T15:41:23;3.63;;;1.77;;
21272;SDS011;36726;52.328;10.552;2023-03-01T15:43:57;3.97;;;2.08;;
21272;SDS011;36726;52.328;10.552;2023-03-01T15:46:28;3.30;;;1.77;;
21272;SDS011;36726;52.328;10.552;2023-03-01T15:49:00;3.17;;;1.60;;
21272;SDS011;36726;52.328;10.552;2023-03-01T15:51:33;2.72;;;1.63;;
21272;SDS011;36726;52.328;10.552;2023-03-01T15:54:05;2.67;;;1.55;;
21272;SDS011;36726;52.328;10.552;2023-03-01T15:56:45;2.88;;;1.65;;
21272;SDS011;36726;52.328;10.552;2023-03-01T15:59:12;4.20;;;1.90;;
21272;SDS011;36726;52.328;10.552;2023-03-01T16:01:41;4.05;;;1.75;;
21272;SDS011;36726;52.328;10.552;2023-03-01T16:04:11;2.75;;;1.70;;
21272;SDS011;36726;52.328;10.552;2023-03-01T16:06:42;5.38;;;1.95;;
21272;SDS011;36726;52.328;10.552;2023-03-01T16:09:09;2.75;;;1.50;;
21272;SDS011;36726;52.328;10.552;2023-03-01T16:11:35;5.28;;;1.75;;
21272;SDS011;36726;52.328;10.552;2023-03-01T16:14:03;4.32;;;1.67;;
21272;SDS011;36726;52.328;10.552;2023-03-01T16:16:30;5.90;;;1.88;;
21272;SDS011;36726;52.328;10.552;2023-03-01T16:18:57;3.65;;;2.00;;
21272;SDS011;36726;52.328;10.552;2023-03-01T16:21:24;4.13;;;2.17;;
21272;SDS011;36726;52.328;10.552;2023-03-01T16:23:52;3.38;;;1.92;;
21272;SDS011;36726;52.328;10.552;2023-03-01T16:26:19;5.40;;;2.03;;
21272;SDS011;36726;52.328;10.552;2023-03-01T16:28:47;3.92;;;1.92;;